Aérodrome :
LOGIN :

S'inscrire | Disclaimer

   EN    FR    IT 

 










Légende :    VFR   VFR Marginal   IFR   IFR Intensif   IFR Très Intensif
Visi : 
Plafond : 
>= 8 km
>= 3000ft
5 à 8 km
1000 à 3000 ft
1500m à 5 km
500 à 1000 ft
800 à 1500m
200 à 500 ft
< 800m
< 200 ft
Symboles :   Orages  Brouillard  Fortes neiges  Fortes précipitations  Vent > 20 kt
SIGMETs :   Divers  Orages  Givrage  Turbulence  Onde Orograph.  Cendres Volcan.







- Altitude de l'aérodrome : 1906 ft
- Code IATA : INN


LOWI - Innsbruck

DERNIER METAR :
  • 230450Z 24006KT CAVOK M00/M02 Q1015 NOSIG

METARs EXPIRÉS :
  • 230420Z AUTO 26003KT 190V330 9999 NCD M02/M02 Q1015
  • 230350Z AUTO VRB01KT 9999 NCD M02/M03 Q1015
  • 230320Z AUTO VRB02KT 9999 NCD M02/M03 Q1015
  • 230250Z AUTO VRB02KT 9999 NCD M02/M02 Q1015
  • 230220Z AUTO VRB01KT 9999 NCD M02/M02 Q1015

TAF TAF LOWI
Valide du 23 à 00h jusqu'au 24 à 00h UTC


222315Z 2300/2324 27005KT CAVOK TX08/2313Z TNM02/2306Z
TEMPO 2300/2307 SCT005 SCT010
BECMG 2310/2312 10006KT
TEMPO 2312/2318 12012G25KT
Pas de NOTAMs connus pour ce terrain.



MET'MAP, la Météo Aéronautique d'un coup d'oeil ! - Copyright ORBIFLY Décembre 2007 - Disclaimer

ORBIFLY MET'MAP TEAM :

Programmation & Développement : Alexandra Zaïnal
Conception & Développement : Baudouin d'Aumeries
Co-Programmation & Développement : Marc-Olivier Méhu
Soutien technique & logistique : Manuel Goepfert

Contact : metmap@orbifly.com




SOURCES & CREDITS :

   NOAA